sensor_id;sensor_type;location;lat;lon;timestamp;P1;durP1;ratioP1;P2;durP2;ratioP2
3443;SDS011;1736;52.068;6.968;2023-04-15T00:01:04;6.80;;;5.03;;
3443;SDS011;1736;52.068;6.968;2023-04-15T00:03:32;7.47;;;5.70;;
3443;SDS011;1736;52.068;6.968;2023-04-15T00:05:59;7.87;;;5.80;;
3443;SDS011;1736;52.068;6.968;2023-04-15T00:08:26;8.00;;;5.87;;
3443;SDS011;1736;52.068;6.968;2023-04-15T00:10:52;8.40;;;5.70;;
3443;SDS011;1736;52.068;6.968;2023-04-15T00:13:19;8.70;;;5.90;;
3443;SDS011;1736;52.068;6.968;2023-04-15T00:15:45;7.53;;;5.30;;
3443;SDS011;1736;52.068;6.968;2023-04-15T00:18:12;9.53;;;5.90;;
3443;SDS011;1736;52.068;6.968;2023-04-15T00:20:40;8.40;;;5.63;;
3443;SDS011;1736;52.068;6.968;2023-04-15T00:23:07;8.97;;;6.10;;
3443;SDS011;1736;52.068;6.968;2023-04-15T00:25:33;9.43;;;6.33;;
3443;SDS011;1736;52.068;6.968;2023-04-15T00:28:00;12.37;;;5.80;;
3443;SDS011;1736;52.068;6.968;2023-04-15T00:30:26;7.50;;;6.10;;
3443;SDS011;1736;52.068;6.968;2023-04-15T00:32:53;6.70;;;5.10;;
3443;SDS011;1736;52.068;6.968;2023-04-15T00:35:20;7.10;;;6.07;;
3443;SDS011;1736;52.068;6.968;2023-04-15T00:37:49;7.30;;;5.63;;
3443;SDS011;1736;52.068;6.968;2023-04-15T00:40:16;6.13;;;5.53;;
3443;SDS011;1736;52.068;6.968;2023-04-15T00:42:44;8.30;;;5.73;;
3443;SDS011;1736;52.068;6.968;2023-04-15T00:45:11;8.90;;;6.20;;
3443;SDS011;1736;52.068;6.968;2023-04-15T00:47:38;9.30;;;5.90;;
3443;SDS011;1736;52.068;6.968;2023-04-15T00:50:07;8.27;;;6.13;;
3443;SDS011;1736;52.068;6.968;2023-04-15T00:52:35;7.80;;;5.97;;
3443;SDS011;1736;52.068;6.968;2023-04-15T00:55:03;10.53;;;6.53;;
3443;SDS011;1736;52.068;6.968;2023-04-15T00:57:30;8.53;;;5.93;;
3443;SDS011;1736;52.068;6.968;2023-04-15T00:59:57;9.50;;;6.17;;
3443;SDS011;1736;52.068;6.968;2023-04-15T01:02:24;8.50;;;6.53;;
3443;SDS011;1736;52.068;6.968;2023-04-15T01:04:51;8.70;;;6.60;;
3443;SDS011;1736;52.068;6.968;2023-04-15T01:07:17;9.50;;;6.70;;
3443;SDS011;1736;52.068;6.968;2023-04-15T01:09:44;9.33;;;6.97;;
3443;SDS011;1736;52.068;6.968;2023-04-15T01:12:13;8.00;;;6.80;;
3443;SDS011;1736;52.068;6.968;2023-04-15T01:14:41;9.10;;;6.63;;
3443;SDS011;1736;52.068;6.968;2023-04-15T01:17:08;10.40;;;7.20;;
3443;SDS011;1736;52.068;6.968;2023-04-15T01:19:35;8.60;;;6.87;;
3443;SDS011;1736;52.068;6.968;2023-04-15T01:22:02;14.63;;;7.50;;
3443;SDS011;1736;52.068;6.968;2023-04-15T01:24:29;9.70;;;7.40;;
3443;SDS011;1736;52.068;6.968;2023-04-15T01:26:59;8.30;;;6.43;;
3443;SDS011;1736;52.068;6.968;2023-04-15T01:29:26;12.57;;;7.53;;
3443;SDS011;1736;52.068;6.968;2023-04-15T01:31:53;10.10;;;7.13;;
3443;SDS011;1736;52.068;6.968;2023-04-15T01:34:20;10.13;;;7.00;;
3443;SDS011;1736;52.068;6.968;2023-04-15T01:36:47;13.40;;;7.47;;
3443;SDS011;1736;52.068;6.968;2023-04-15T01:39:14;11.90;;;7.40;;
3443;SDS011;1736;52.068;6.968;2023-04-15T01:41:40;10.00;;;7.67;;
3443;SDS011;1736;52.068;6.968;2023-04-15T01:44:08;11.70;;;7.80;;
3443;SDS011;1736;52.068;6.968;2023-04-15T01:46:35;12.43;;;7.40;;
3443;SDS011;1736;52.068;6.968;2023-04-15T01:49:02;9.10;;;7.40;;
3443;SDS011;1736;52.068;6.968;2023-04-15T01:51:28;9.60;;;7.37;;
3443;SDS011;1736;52.068;6.968;2023-04-15T01:53:55;13.10;;;7.70;;
3443;SDS011;1736;52.068;6.968;2023-04-15T01:56:21;10.33;;;6.90;;
3443;SDS011;1736;52.068;6.968;2023-04-15T01:58:49;9.93;;;7.33;;
3443;SDS011;1736;52.068;6.968;2023-04-15T02:01:17;11.80;;;6.60;;
3443;SDS011;1736;52.068;6.968;2023-04-15T02:03:44;9.53;;;7.07;;
3443;SDS011;1736;52.068;6.968;2023-04-15T02:06:11;9.87;;;7.93;;
3443;SDS011;1736;52.068;6.968;2023-04-15T02:08:38;12.40;;;7.93;;
3443;SDS011;1736;52.068;6.968;2023-04-15T02:11:05;10.50;;;7.57;;
3443;SDS011;1736;52.068;6.968;2023-04-15T02:13:31;16.70;;;8.10;;
3443;SDS011;1736;52.068;6.968;2023-04-15T02:15:58;9.93;;;7.17;;
3443;SDS011;1736;52.068;6.968;2023-04-15T02:18:26;10.17;;;6.93;;
3443;SDS011;1736;52.068;6.968;2023-04-15T02:20:52;10.07;;;7.50;;
3443;SDS011;1736;52.068;6.968;2023-04-15T02:23:20;11.07;;;7.57;;
3443;SDS011;1736;52.068;6.968;2023-04-15T02:25:47;9.43;;;7.17;;
3443;SDS011;1736;52.068;6.968;2023-04-15T02:28:13;11.27;;;7.63;;
3443;SDS011;1736;52.068;6.968;2023-04-15T02:30:40;13.00;;;8.30;;
3443;SDS011;1736;52.068;6.968;2023-04-15T02:33:06;8.10;;;6.93;;
3443;SDS011;1736;52.068;6.968;2023-04-15T02:35:34;11.70;;;7.87;;
3443;SDS011;1736;52.068;6.968;2023-04-15T02:38:03;10.37;;;7.97;;
3443;SDS011;1736;52.068;6.968;2023-04-15T02:40:29;11.10;;;8.33;;
3443;SDS011;1736;52.068;6.968;2023-04-15T02:42:56;12.63;;;7.60;;
3443;SDS011;1736;52.068;6.968;2023-04-15T02:45:24;11.10;;;7.60;;
3443;SDS011;1736;52.068;6.968;2023-04-15T02:47:52;12.33;;;8.40;;
3443;SDS011;1736;52.068;6.968;2023-04-15T02:50:18;10.90;;;7.60;;
3443;SDS011;1736;52.068;6.968;2023-04-15T02:52:48;10.90;;;7.90;;
3443;SDS011;1736;52.068;6.968;2023-04-15T02:55:15;12.63;;;7.43;;
3443;SDS011;1736;52.068;6.968;2023-04-15T02:57:42;9.60;;;6.97;;
3443;SDS011;1736;52.068;6.968;2023-04-15T03:00:09;14.27;;;8.63;;
3443;SDS011;1736;52.068;6.968;2023-04-15T03:02:36;12.43;;;8.10;;
3443;SDS011;1736;52.068;6.968;2023-04-15T03:05:04;10.50;;;7.13;;
3443;SDS011;1736;52.068;6.968;2023-04-15T03:07:32;15.20;;;8.93;;
3443;SDS011;1736;52.068;6.968;2023-04-15T03:10:00;12.50;;;8.63;;
3443;SDS011;1736;52.068;6.968;2023-04-15T03:12:26;10.67;;;8.00;;
3443;SDS011;1736;52.068;6.968;2023-04-15T03:14:54;10.70;;;7.40;;
3443;SDS011;1736;52.068;6.968;2023-04-15T03:17:21;10.23;;;7.50;;
3443;SDS011;1736;52.068;6.968;2023-04-15T03:19:47;11.70;;;8.07;;
3443;SDS011;1736;52.068;6.968;2023-04-15T03:22:14;15.07;;;8.90;;
3443;SDS011;1736;52.068;6.968;2023-04-15T03:24:40;11.10;;;7.63;;
3443;SDS011;1736;52.068;6.968;2023-04-15T03:27:08;11.20;;;8.20;;
3443;SDS011;1736;52.068;6.968;2023-04-15T03:29:35;14.70;;;8.97;;
3443;SDS011;1736;52.068;6.968;2023-04-15T03:32:01;11.50;;;8.83;;
3443;SDS011;1736;52.068;6.968;2023-04-15T03:34:28;13.43;;;8.77;;
3443;SDS011;1736;52.068;6.968;2023-04-15T03:36:54;12.70;;;9.27;;
3443;SDS011;1736;52.068;6.968;2023-04-15T03:39:21;14.53;;;9.10;;
3443;SDS011;1736;52.068;6.968;2023-04-15T03:41:47;13.80;;;9.27;;
3443;SDS011;1736;52.068;6.968;2023-04-15T03:44:15;10.37;;;8.30;;
3443;SDS011;1736;52.068;6.968;2023-04-15T03:46:42;12.50;;;8.30;;
3443;SDS011;1736;52.068;6.968;2023-04-15T03:49:09;12.80;;;9.17;;
3443;SDS011;1736;52.068;6.968;2023-04-15T03:51:36;13.07;;;8.47;;
3443;SDS011;1736;52.068;6.968;2023-04-15T03:54:02;14.53;;;9.80;;
3443;SDS011;1736;52.068;6.968;2023-04-15T03:56:29;13.63;;;8.60;;
3443;SDS011;1736;52.068;6.968;2023-04-15T03:58:56;14.17;;;9.53;;
3443;SDS011;1736;52.068;6.968;2023-04-15T04:01:24;21.53;;;10.40;;
3443;SDS011;1736;52.068;6.968;2023-04-15T04:03:50;13.97;;;9.20;;
3443;SDS011;1736;52.068;6.968;2023-04-15T04:06:17;13.57;;;9.20;;
3443;SDS011;1736;52.068;6.968;2023-04-15T04:08:43;12.53;;;8.87;;
3443;SDS011;1736;52.068;6.968;2023-04-15T04:11:10;12.80;;;9.53;;
3443;SDS011;1736;52.068;6.968;2023-04-15T04:13:37;15.47;;;9.70;;
3443;SDS011;1736;52.068;6.968;2023-04-15T04:16:03;18.60;;;9.53;;
3443;SDS011;1736;52.068;6.968;2023-04-15T04:18:31;18.93;;;9.57;;
3443;SDS011;1736;52.068;6.968;2023-04-15T04:20:58;13.63;;;9.27;;
3443;SDS011;1736;52.068;6.968;2023-04-15T04:23:25;17.97;;;11.40;;
3443;SDS011;1736;52.068;6.968;2023-04-15T04:25:52;15.10;;;10.30;;
3443;SDS011;1736;52.068;6.968;2023-04-15T04:28:18;13.43;;;10.00;;
3443;SDS011;1736;52.068;6.968;2023-04-15T04:30:45;14.33;;;10.60;;
3443;SDS011;1736;52.068;6.968;2023-04-15T04:33:12;14.97;;;10.40;;
3443;SDS011;1736;52.068;6.968;2023-04-15T04:35:40;16.63;;;10.10;;
3443;SDS011;1736;52.068;6.968;2023-04-15T04:38:06;14.80;;;10.50;;
3443;SDS011;1736;52.068;6.968;2023-04-15T04:40:33;15.50;;;10.27;;
3443;SDS011;1736;52.068;6.968;2023-04-15T04:42:59;15.90;;;9.60;;
3443;SDS011;1736;52.068;6.968;2023-04-15T04:45:26;17.67;;;10.23;;
3443;SDS011;1736;52.068;6.968;2023-04-15T04:47:52;15.80;;;10.30;;
3443;SDS011;1736;52.068;6.968;2023-04-15T04:50:19;19.63;;;12.37;;
3443;SDS011;1736;52.068;6.968;2023-04-15T04:52:47;17.87;;;11.77;;
3443;SDS011;1736;52.068;6.968;2023-04-15T04:55:13;21.80;;;11.60;;
3443;SDS011;1736;52.068;6.968;2023-04-15T04:57:40;17.60;;;11.00;;
3443;SDS011;1736;52.068;6.968;2023-04-15T05:00:07;18.53;;;11.40;;
3443;SDS011;1736;52.068;6.968;2023-04-15T05:02:34;15.50;;;10.50;;
3443;SDS011;1736;52.068;6.968;2023-04-15T05:05:01;16.60;;;11.23;;
3443;SDS011;1736;52.068;6.968;2023-04-15T05:07:27;18.80;;;11.77;;
3443;SDS011;1736;52.068;6.968;2023-04-15T05:09:55;17.50;;;11.73;;
3443;SDS011;1736;52.068;6.968;2023-04-15T05:12:22;19.63;;;11.50;;
3443;SDS011;1736;52.068;6.968;2023-04-15T05:14:49;16.83;;;11.37;;
3443;SDS011;1736;52.068;6.968;2023-04-15T05:17:15;15.80;;;10.03;;
3443;SDS011;1736;52.068;6.968;2023-04-15T05:19:42;16.00;;;11.40;;
3443;SDS011;1736;52.068;6.968;2023-04-15T05:22:08;17.30;;;11.43;;
3443;SDS011;1736;52.068;6.968;2023-04-15T05:24:35;18.43;;;11.83;;
3443;SDS011;1736;52.068;6.968;2023-04-15T05:27:03;18.97;;;12.03;;
3443;SDS011;1736;52.068;6.968;2023-04-15T05:29:29;18.03;;;11.37;;
3443;SDS011;1736;52.068;6.968;2023-04-15T05:31:56;19.60;;;12.67;;
3443;SDS011;1736;52.068;6.968;2023-04-15T05:34:22;19.17;;;12.37;;
3443;SDS011;1736;52.068;6.968;2023-04-15T05:36:49;24.00;;;12.30;;
3443;SDS011;1736;52.068;6.968;2023-04-15T05:39:16;18.00;;;12.10;;
3443;SDS011;1736;52.068;6.968;2023-04-15T05:41:43;18.37;;;12.07;;
3443;SDS011;1736;52.068;6.968;2023-04-15T05:44:11;19.00;;;12.10;;
3443;SDS011;1736;52.068;6.968;2023-04-15T05:46:37;18.90;;;12.03;;
3443;SDS011;1736;52.068;6.968;2023-04-15T05:49:04;16.67;;;11.07;;
3443;SDS011;1736;52.068;6.968;2023-04-15T05:51:31;19.87;;;11.87;;
3443;SDS011;1736;52.068;6.968;2023-04-15T05:53:57;16.67;;;10.93;;
3443;SDS011;1736;52.068;6.968;2023-04-15T05:56:24;16.07;;;10.77;;
3443;SDS011;1736;52.068;6.968;2023-04-15T05:58:51;18.23;;;11.93;;
3443;SDS011;1736;52.068;6.968;2023-04-15T06:01:19;16.03;;;10.47;;
3443;SDS011;1736;52.068;6.968;2023-04-15T06:03:46;19.23;;;12.37;;
3443;SDS011;1736;52.068;6.968;2023-04-15T06:06:12;19.40;;;11.93;;
3443;SDS011;1736;52.068;6.968;2023-04-15T06:08:39;15.03;;;10.73;;
3443;SDS011;1736;52.068;6.968;2023-04-15T06:11:06;18.80;;;11.67;;
3443;SDS011;1736;52.068;6.968;2023-04-15T06:13:32;17.73;;;11.67;;
3443;SDS011;1736;52.068;6.968;2023-04-15T06:15:59;16.00;;;10.70;;
3443;SDS011;1736;52.068;6.968;2023-04-15T06:18:27;14.73;;;10.43;;
3443;SDS011;1736;52.068;6.968;2023-04-15T06:20:53;17.40;;;10.60;;
3443;SDS011;1736;52.068;6.968;2023-04-15T06:23:20;15.03;;;10.27;;
3443;SDS011;1736;52.068;6.968;2023-04-15T06:25:46;19.40;;;11.90;;
3443;SDS011;1736;52.068;6.968;2023-04-15T06:28:13;19.03;;;11.30;;
3443;SDS011;1736;52.068;6.968;2023-04-15T06:30:40;15.00;;;11.10;;
3443;SDS011;1736;52.068;6.968;2023-04-15T06:33:06;17.17;;;11.37;;
3443;SDS011;1736;52.068;6.968;2023-04-15T06:35:35;17.97;;;11.33;;
3443;SDS011;1736;52.068;6.968;2023-04-15T06:38:03;17.07;;;11.50;;
3443;SDS011;1736;52.068;6.968;2023-04-15T06:40:29;17.50;;;10.77;;
3443;SDS011;1736;52.068;6.968;2023-04-15T06:42:56;16.63;;;11.40;;
3443;SDS011;1736;52.068;6.968;2023-04-15T06:45:23;15.13;;;10.30;;
3443;SDS011;1736;52.068;6.968;2023-04-15T06:47:49;17.67;;;11.13;;
3443;SDS011;1736;52.068;6.968;2023-04-15T06:50:16;18.07;;;10.93;;
3443;SDS011;1736;52.068;6.968;2023-04-15T06:52:44;18.63;;;10.87;;
3443;SDS011;1736;52.068;6.968;2023-04-15T06:55:11;18.30;;;11.60;;
3443;SDS011;1736;52.068;6.968;2023-04-15T06:57:37;17.23;;;11.63;;
3443;SDS011;1736;52.068;6.968;2023-04-15T07:00:04;19.30;;;10.33;;
3443;SDS011;1736;52.068;6.968;2023-04-15T07:02:32;18.57;;;12.10;;
3443;SDS011;1736;52.068;6.968;2023-04-15T07:04:59;17.60;;;11.63;;
3443;SDS011;1736;52.068;6.968;2023-04-15T07:07:25;18.03;;;11.30;;
3443;SDS011;1736;52.068;6.968;2023-04-15T07:09:53;14.77;;;10.47;;
3443;SDS011;1736;52.068;6.968;2023-04-15T07:12:20;18.77;;;10.93;;
3443;SDS011;1736;52.068;6.968;2023-04-15T07:14:46;14.80;;;10.60;;
3443;SDS011;1736;52.068;6.968;2023-04-15T07:17:13;14.87;;;10.73;;
3443;SDS011;1736;52.068;6.968;2023-04-15T07:19:40;15.67;;;10.50;;
3443;SDS011;1736;52.068;6.968;2023-04-15T07:22:06;22.17;;;11.53;;
3443;SDS011;1736;52.068;6.968;2023-04-15T07:24:33;14.10;;;9.93;;
3443;SDS011;1736;52.068;6.968;2023-04-15T07:27:01;14.60;;;9.90;;
3443;SDS011;1736;52.068;6.968;2023-04-15T07:29:28;15.30;;;10.90;;
3443;SDS011;1736;52.068;6.968;2023-04-15T07:31:54;17.13;;;9.90;;
3443;SDS011;1736;52.068;6.968;2023-04-15T07:34:21;17.33;;;11.03;;
3443;SDS011;1736;52.068;6.968;2023-04-15T07:36:48;14.80;;;9.80;;
3443;SDS011;1736;52.068;6.968;2023-04-15T07:39:16;18.37;;;9.90;;
3443;SDS011;1736;52.068;6.968;2023-04-15T07:41:42;15.43;;;10.10;;
3443;SDS011;1736;52.068;6.968;2023-04-15T07:44:10;14.00;;;10.20;;
3443;SDS011;1736;52.068;6.968;2023-04-15T07:46:37;21.80;;;11.30;;
3443;SDS011;1736;52.068;6.968;2023-04-15T07:49:04;17.63;;;10.47;;
3443;SDS011;1736;52.068;6.968;2023-04-15T07:51:31;17.83;;;9.87;;
3443;SDS011;1736;52.068;6.968;2023-04-15T07:53:58;16.93;;;10.13;;
3443;SDS011;1736;52.068;6.968;2023-04-15T07:56:24;18.90;;;10.10;;
3443;SDS011;1736;52.068;6.968;2023-04-15T07:58:51;13.97;;;9.00;;
3443;SDS011;1736;52.068;6.968;2023-04-15T08:01:19;16.20;;;9.93;;
3443;SDS011;1736;52.068;6.968;2023-04-15T08:03:46;14.07;;;9.60;;
3443;SDS011;1736;52.068;6.968;2023-04-15T08:06:13;20.20;;;9.93;;
3443;SDS011;1736;52.068;6.968;2023-04-15T08:08:39;13.43;;;8.60;;
3443;SDS011;1736;52.068;6.968;2023-04-15T08:11:07;14.30;;;8.80;;
3443;SDS011;1736;52.068;6.968;2023-04-15T08:13:34;14.60;;;9.10;;
3443;SDS011;1736;52.068;6.968;2023-04-15T08:16:15;11.17;;;8.20;;
3443;SDS011;1736;52.068;6.968;2023-04-15T08:18:44;10.63;;;7.70;;
3443;SDS011;1736;52.068;6.968;2023-04-15T08:21:11;10.93;;;8.10;;
3443;SDS011;1736;52.068;6.968;2023-04-15T08:23:38;9.87;;;7.27;;
3443;SDS011;1736;52.068;6.968;2023-04-15T08:26:05;13.40;;;8.63;;
3443;SDS011;1736;52.068;6.968;2023-04-15T08:28:32;12.27;;;8.83;;
3443;SDS011;1736;52.068;6.968;2023-04-15T08:30:59;14.60;;;8.77;;
3443;SDS011;1736;52.068;6.968;2023-04-15T08:33:32;9.70;;;8.00;;
3443;SDS011;1736;52.068;6.968;2023-04-15T08:36:00;10.47;;;7.37;;
3443;SDS011;1736;52.068;6.968;2023-04-15T08:38:27;14.73;;;8.50;;
3443;SDS011;1736;52.068;6.968;2023-04-15T08:40:53;11.83;;;7.63;;
3443;SDS011;1736;52.068;6.968;2023-04-15T08:43:23;10.97;;;7.03;;
3443;SDS011;1736;52.068;6.968;2023-04-15T08:45:54;10.10;;;7.40;;
3443;SDS011;1736;52.068;6.968;2023-04-15T08:48:23;9.47;;;6.97;;
3443;SDS011;1736;52.068;6.968;2023-04-15T08:50:53;9.70;;;6.73;;
3443;SDS011;1736;52.068;6.968;2023-04-15T08:53:22;11.07;;;6.80;;
3443;SDS011;1736;52.068;6.968;2023-04-15T08:55:56;10.43;;;7.10;;
3443;SDS011;1736;52.068;6.968;2023-04-15T08:58:25;12.73;;;6.97;;
3443;SDS011;1736;52.068;6.968;2023-04-15T09:00:52;9.70;;;6.80;;
3443;SDS011;1736;52.068;6.968;2023-04-15T09:03:20;9.57;;;7.10;;
3443;SDS011;1736;52.068;6.968;2023-04-15T09:05:47;11.33;;;7.70;;
3443;SDS011;1736;52.068;6.968;2023-04-15T09:08:15;11.47;;;6.97;;
3443;SDS011;1736;52.068;6.968;2023-04-15T09:10:43;9.40;;;6.77;;
3443;SDS011;1736;52.068;6.968;2023-04-15T09:13:09;8.60;;;6.43;;
3443;SDS011;1736;52.068;6.968;2023-04-15T09:15:37;7.90;;;6.10;;
3443;SDS011;1736;52.068;6.968;2023-04-15T09:18:04;9.40;;;6.27;;
3443;SDS011;1736;52.068;6.968;2023-04-15T09:20:32;7.30;;;5.70;;
3443;SDS011;1736;52.068;6.968;2023-04-15T09:23:10;7.87;;;6.37;;
3443;SDS011;1736;52.068;6.968;2023-04-15T09:25:38;8.20;;;5.90;;
3443;SDS011;1736;52.068;6.968;2023-04-15T09:28:08;13.83;;;6.77;;
3443;SDS011;1736;52.068;6.968;2023-04-15T09:30:34;10.60;;;6.33;;
3443;SDS011;1736;52.068;6.968;2023-04-15T09:33:01;8.23;;;6.10;;
3443;SDS011;1736;52.068;6.968;2023-04-15T09:35:32;12.63;;;6.73;;
3443;SDS011;1736;52.068;6.968;2023-04-15T09:38:02;9.53;;;6.63;;
3443;SDS011;1736;52.068;6.968;2023-04-15T09:40:31;8.83;;;5.90;;
3443;SDS011;1736;52.068;6.968;2023-04-15T09:42:58;7.73;;;5.93;;
3443;SDS011;1736;52.068;6.968;2023-04-15T09:45:27;9.03;;;6.40;;
3443;SDS011;1736;52.068;6.968;2023-04-15T09:47:54;13.13;;;6.00;;
3443;SDS011;1736;52.068;6.968;2023-04-15T09:50:30;8.37;;;5.70;;
3443;SDS011;1736;52.068;6.968;2023-04-15T09:52:57;6.43;;;5.43;;
3443;SDS011;1736;52.068;6.968;2023-04-15T09:55:31;6.20;;;5.27;;
3443;SDS011;1736;52.068;6.968;2023-04-15T09:57:58;9.53;;;5.23;;
3443;SDS011;1736;52.068;6.968;2023-04-15T10:00:24;8.80;;;5.53;;
3443;SDS011;1736;52.068;6.968;2023-04-15T10:02:54;7.43;;;5.00;;
3443;SDS011;1736;52.068;6.968;2023-04-15T10:05:21;7.77;;;5.20;;
3443;SDS011;1736;52.068;6.968;2023-04-15T10:07:48;7.73;;;5.23;;
3443;SDS011;1736;52.068;6.968;2023-04-15T10:10:15;6.83;;;4.53;;
3443;SDS011;1736;52.068;6.968;2023-04-15T10:12:42;5.53;;;4.40;;
3443;SDS011;1736;52.068;6.968;2023-04-15T10:15:11;6.33;;;4.53;;
3443;SDS011;1736;52.068;6.968;2023-04-15T10:17:42;7.97;;;4.30;;
3443;SDS011;1736;52.068;6.968;2023-04-15T10:20:09;5.47;;;4.60;;
3443;SDS011;1736;52.068;6.968;2023-04-15T10:22:38;5.87;;;4.30;;
3443;SDS011;1736;52.068;6.968;2023-04-15T10:25:07;8.70;;;4.10;;
3443;SDS011;1736;52.068;6.968;2023-04-15T10:27:34;5.90;;;4.00;;
3443;SDS011;1736;52.068;6.968;2023-04-15T10:30:01;5.47;;;3.50;;
3443;SDS011;1736;52.068;6.968;2023-04-15T10:32:28;4.97;;;3.90;;
3443;SDS011;1736;52.068;6.968;2023-04-15T10:34:57;5.43;;;3.77;;
3443;SDS011;1736;52.068;6.968;2023-04-15T10:37:32;4.87;;;3.90;;
3443;SDS011;1736;52.068;6.968;2023-04-15T10:40:00;4.57;;;4.13;;
3443;SDS011;1736;52.068;6.968;2023-04-15T10:42:47;5.40;;;4.10;;
3443;SDS011;1736;52.068;6.968;2023-04-15T10:45:15;8.23;;;3.93;;
3443;SDS011;1736;52.068;6.968;2023-04-15T10:47:42;4.70;;;4.13;;
3443;SDS011;1736;52.068;6.968;2023-04-15T10:50:10;4.30;;;3.90;;
3443;SDS011;1736;52.068;6.968;2023-04-15T10:52:43;5.33;;;4.27;;
3443;SDS011;1736;52.068;6.968;2023-04-15T10:55:12;6.97;;;4.20;;
3443;SDS011;1736;52.068;6.968;2023-04-15T10:57:40;7.13;;;4.90;;
3443;SDS011;1736;52.068;6.968;2023-04-15T11:00:11;10.80;;;6.13;;
3443;SDS011;1736;52.068;6.968;2023-04-15T11:02:40;6.97;;;4.50;;
3443;SDS011;1736;52.068;6.968;2023-04-15T11:05:08;3.90;;;3.40;;
3443;SDS011;1736;52.068;6.968;2023-04-15T11:07:37;3.60;;;3.30;;
3443;SDS011;1736;52.068;6.968;2023-04-15T11:13:16;4.70;;;3.70;;
3443;SDS011;1736;52.068;6.968;2023-04-15T11:15:46;6.27;;;3.90;;
3443;SDS011;1736;52.068;6.968;2023-04-15T11:18:14;4.73;;;4.23;;
3443;SDS011;1736;52.068;6.968;2023-04-15T11:20:44;4.83;;;3.33;;
3443;SDS011;1736;52.068;6.968;2023-04-15T11:23:13;3.80;;;3.50;;
3443;SDS011;1736;52.068;6.968;2023-04-15T11:25:41;3.40;;;3.10;;
3443;SDS011;1736;52.068;6.968;2023-04-15T11:28:08;4.43;;;2.80;;
3443;SDS011;1736;52.068;6.968;2023-04-15T11:30:36;3.70;;;3.40;;
3443;SDS011;1736;52.068;6.968;2023-04-15T11:33:04;3.40;;;3.10;;
3443;SDS011;1736;52.068;6.968;2023-04-15T11:35:32;5.30;;;3.50;;
3443;SDS011;1736;52.068;6.968;2023-04-15T11:38:02;3.47;;;3.17;;
3443;SDS011;1736;52.068;6.968;2023-04-15T11:40:30;3.63;;;3.33;;
3443;SDS011;1736;52.068;6.968;2023-04-15T11:43:04;3.80;;;3.50;;
3443;SDS011;1736;52.068;6.968;2023-04-15T11:45:31;5.23;;;3.47;;
3443;SDS011;1736;52.068;6.968;2023-04-15T11:48:04;4.50;;;3.73;;
3443;SDS011;1736;52.068;6.968;2023-04-15T11:50:34;5.23;;;3.20;;
3443;SDS011;1736;52.068;6.968;2023-04-15T11:53:03;3.67;;;3.33;;
3443;SDS011;1736;52.068;6.968;2023-04-15T11:55:30;5.03;;;3.27;;
3443;SDS011;1736;52.068;6.968;2023-04-15T11:58:07;3.50;;;3.10;;
3443;SDS011;1736;52.068;6.968;2023-04-15T12:00:35;3.93;;;3.10;;
3443;SDS011;1736;52.068;6.968;2023-04-15T12:06:02;3.10;;;2.90;;
3443;SDS011;1736;52.068;6.968;2023-04-15T12:08:48;6.20;;;3.17;;
3443;SDS011;1736;52.068;6.968;2023-04-15T12:11:16;3.27;;;2.97;;
3443;SDS011;1736;52.068;6.968;2023-04-15T12:13:43;4.17;;;3.20;;
3443;SDS011;1736;52.068;6.968;2023-04-15T12:16:12;3.77;;;3.47;;
3443;SDS011;1736;52.068;6.968;2023-04-15T12:18:43;2.80;;;2.60;;
3443;SDS011;1736;52.068;6.968;2023-04-15T12:21:11;3.90;;;3.37;;
3443;SDS011;1736;52.068;6.968;2023-04-15T12:23:38;4.73;;;3.43;;
3443;SDS011;1736;52.068;6.968;2023-04-15T12:26:14;4.10;;;3.50;;
3443;SDS011;1736;52.068;6.968;2023-04-15T12:28:41;3.63;;;2.87;;
3443;SDS011;1736;52.068;6.968;2023-04-15T12:31:08;3.70;;;3.33;;
3443;SDS011;1736;52.068;6.968;2023-04-15T12:33:35;5.37;;;3.27;;
3443;SDS011;1736;52.068;6.968;2023-04-15T12:36:02;3.50;;;3.20;;
3443;SDS011;1736;52.068;6.968;2023-04-15T12:38:29;3.97;;;3.10;;
3443;SDS011;1736;52.068;6.968;2023-04-15T12:40:56;4.60;;;3.67;;
3443;SDS011;1736;52.068;6.968;2023-04-15T12:43:25;7.27;;;3.83;;
3443;SDS011;1736;52.068;6.968;2023-04-15T12:45:51;3.43;;;3.13;;
3443;SDS011;1736;52.068;6.968;2023-04-15T12:48:18;3.70;;;3.17;;
3443;SDS011;1736;52.068;6.968;2023-04-15T12:50:45;4.70;;;3.10;;
3443;SDS011;1736;52.068;6.968;2023-04-15T12:53:11;4.47;;;3.07;;
3443;SDS011;1736;52.068;6.968;2023-04-15T12:55:38;3.20;;;3.00;;
3443;SDS011;1736;52.068;6.968;2023-04-15T12:58:04;3.20;;;2.90;;
3443;SDS011;1736;52.068;6.968;2023-04-15T13:00:33;3.33;;;3.03;;
3443;SDS011;1736;52.068;6.968;2023-04-15T13:03:00;3.10;;;2.80;;
3443;SDS011;1736;52.068;6.968;2023-04-15T13:05:26;4.50;;;3.13;;
3443;SDS011;1736;52.068;6.968;2023-04-15T13:07:53;3.60;;;3.30;;
3443;SDS011;1736;52.068;6.968;2023-04-15T13:10:19;4.73;;;3.10;;
3443;SDS011;1736;52.068;6.968;2023-04-15T13:12:47;3.57;;;3.27;;
3443;SDS011;1736;52.068;6.968;2023-04-15T13:15:14;3.47;;;3.10;;
3443;SDS011;1736;52.068;6.968;2023-04-15T13:17:44;3.50;;;3.00;;
3443;SDS011;1736;52.068;6.968;2023-04-15T13:20:11;6.00;;;3.30;;
3443;SDS011;1736;52.068;6.968;2023-04-15T13:22:37;15.23;;;3.80;;
3443;SDS011;1736;52.068;6.968;2023-04-15T13:25:05;5.13;;;2.87;;
3443;SDS011;1736;52.068;6.968;2023-04-15T13:27:32;3.33;;;2.93;;
3443;SDS011;1736;52.068;6.968;2023-04-15T13:29:58;4.63;;;3.23;;
3443;SDS011;1736;52.068;6.968;2023-04-15T13:32:25;4.17;;;3.07;;
3443;SDS011;1736;52.068;6.968;2023-04-15T13:34:53;3.57;;;2.97;;
3443;SDS011;1736;52.068;6.968;2023-04-15T13:37:21;3.40;;;3.10;;
3443;SDS011;1736;52.068;6.968;2023-04-15T13:39:51;6.83;;;3.43;;
3443;SDS011;1736;52.068;6.968;2023-04-15T13:42:17;4.23;;;3.50;;
3443;SDS011;1736;52.068;6.968;2023-04-15T13:44:44;3.90;;;3.20;;
3443;SDS011;1736;52.068;6.968;2023-04-15T13:47:11;4.60;;;3.43;;
3443;SDS011;1736;52.068;6.968;2023-04-15T13:49:38;3.20;;;2.90;;
3443;SDS011;1736;52.068;6.968;2023-04-15T13:52:06;4.07;;;3.57;;
3443;SDS011;1736;52.068;6.968;2023-04-15T13:54:33;3.40;;;3.10;;
3443;SDS011;1736;52.068;6.968;2023-04-15T13:56:59;3.63;;;3.33;;
3443;SDS011;1736;52.068;6.968;2023-04-15T13:59:26;3.30;;;3.00;;
3443;SDS011;1736;52.068;6.968;2023-04-15T14:01:52;3.10;;;2.90;;
3443;SDS011;1736;52.068;6.968;2023-04-15T14:04:19;3.00;;;2.77;;
3443;SDS011;1736;52.068;6.968;2023-04-15T14:06:45;8.10;;;3.50;;
3443;SDS011;1736;52.068;6.968;2023-04-15T14:09:14;3.30;;;3.00;;
3443;SDS011;1736;52.068;6.968;2023-04-15T14:11:41;2.70;;;2.60;;
3443;SDS011;1736;52.068;6.968;2023-04-15T14:14:07;3.83;;;3.53;;
3443;SDS011;1736;52.068;6.968;2023-04-15T14:16:34;3.60;;;3.27;;
3443;SDS011;1736;52.068;6.968;2023-04-15T14:19:00;3.57;;;3.20;;
3443;SDS011;1736;52.068;6.968;2023-04-15T14:21:27;5.60;;;3.30;;
3443;SDS011;1736;52.068;6.968;2023-04-15T14:23:56;3.97;;;3.60;;
3443;SDS011;1736;52.068;6.968;2023-04-15T14:26:24;3.83;;;3.53;;
3443;SDS011;1736;52.068;6.968;2023-04-15T14:28:50;6.67;;;3.87;;
3443;SDS011;1736;52.068;6.968;2023-04-15T14:31:17;3.83;;;3.50;;
3443;SDS011;1736;52.068;6.968;2023-04-15T14:33:44;5.13;;;3.50;;
3443;SDS011;1736;52.068;6.968;2023-04-15T14:36:11;5.50;;;3.90;;
3443;SDS011;1736;52.068;6.968;2023-04-15T14:38:37;5.20;;;3.90;;
3443;SDS011;1736;52.068;6.968;2023-04-15T14:41:05;4.93;;;4.47;;
3443;SDS011;1736;52.068;6.968;2023-04-15T14:43:33;6.50;;;4.13;;
3443;SDS011;1736;52.068;6.968;2023-04-15T14:46:00;6.43;;;4.10;;
3443;SDS011;1736;52.068;6.968;2023-04-15T14:48:27;4.40;;;4.00;;
3443;SDS011;1736;52.068;6.968;2023-04-15T14:50:53;4.40;;;4.00;;
3443;SDS011;1736;52.068;6.968;2023-04-15T14:53:20;6.50;;;3.50;;
3443;SDS011;1736;52.068;6.968;2023-04-15T14:55:46;6.63;;;3.47;;
3443;SDS011;1736;52.068;6.968;2023-04-15T14:58:13;5.13;;;4.17;;
3443;SDS011;1736;52.068;6.968;2023-04-15T15:00:42;4.47;;;3.73;;
3443;SDS011;1736;52.068;6.968;2023-04-15T15:03:09;6.47;;;4.53;;
3443;SDS011;1736;52.068;6.968;2023-04-15T15:05:37;7.40;;;4.03;;
3443;SDS011;1736;52.068;6.968;2023-04-15T15:08:04;6.70;;;3.90;;
3443;SDS011;1736;52.068;6.968;2023-04-15T15:10:31;4.87;;;3.73;;
3443;SDS011;1736;52.068;6.968;2023-04-15T15:12:58;6.40;;;5.33;;